Wetterdaten: Dienstag, 02.06.2020
Datum Zeit Temp. A. Temp. A. min Temp. A. max Feuchte A. Bod.Feucht 4 Luftdruck Regen Wind Richtung Richtung Sonnenschein ET Solar Taupunkt Windchill Windben Empfang
02.06.2020 00:00 16,7 C 16,7 C 16,8 C 58 % 0 cb 1018,7 hPa 0,0 l/m 1,6 km/h (1 Bft) N 360 0 min 0,051 mm 0 W/m 8,4 C 16,7 C 8,0 km/h (2 Bft) 100,00 %
02.06.2020 00:10 16,4 C 16,4 C 16,7 C 58 % 0 cb 1018,6 hPa 0,0 l/m 1,6 km/h (1 Bft) N 360 0 min 0,000 mm 0 W/m 8,1 C 16,4 C 6,4 km/h (2 Bft) 100,00 %
02.06.2020 00:20 16,3 C 16,3 C 16,4 C 59 % 0 cb 1018,7 hPa 0,0 l/m 1,6 km/h (1 Bft) N-NO 22 0 min 0,000 mm 0 W/m 8,3 C 16,3 C 8,0 km/h (2 Bft) 98,68 %
02.06.2020 00:30 16,2 C 16,2 C 16,3 C 59 % 0 cb 1018,6 hPa 0,0 l/m 3,2 km/h (1 Bft) N 360 0 min 0,000 mm 0 W/m 8,2 C 16,2 C 9,7 km/h (2 Bft) 100,00 %
02.06.2020 00:40 15,9 C 15,9 C 16,2 C 60 % 0 cb 1018,6 hPa 0,0 l/m 3,2 km/h (1 Bft) N 360 0 min 0,000 mm 0 W/m 8,1 C 15,9 C 8,0 km/h (2 Bft) 100,00 %
02.06.2020 00:50 15,9 C 15,9 C 15,9 C 60 % 0 cb 1018,6 hPa 0,0 l/m 4,8 km/h (1 Bft) N-NO 22 0 min 0,000 mm 0 W/m 8,1 C 15,9 C 9,7 km/h (2 Bft) 100,00 %
02.06.2020 01:00 15,8 C 15,8 C 15,9 C 61 % 0 cb 1018,5 hPa 0,0 l/m 4,8 km/h (1 Bft) N-NO 22 0 min 0,051 mm 0 W/m 8,3 C 15,8 C 11,3 km/h (2 Bft) 99,12 %
02.06.2020 01:10 15,7 C 15,7 C 15,8 C 62 % 0 cb 1018,4 hPa 0,0 l/m 3,2 km/h (1 Bft) N-NO 22 0 min 0,000 mm 0 W/m 8,4 C 15,7 C 9,7 km/h (2 Bft) 100,00 %
02.06.2020 01:20 15,7 C 15,7 C 15,7 C 61 % 0 cb 1018,4 hPa 0,0 l/m 3,2 km/h (1 Bft) N 360 0 min 0,000 mm 0 W/m 8,2 C 15,7 C 9,7 km/h (2 Bft) 100,00 %
02.06.2020 01:30 15,6 C 15,6 C 15,7 C 61 % 0 cb 1018,4 hPa 0,0 l/m 3,2 km/h (1 Bft) N 360 0 min 0,000 mm 0 W/m 8,1 C 15,6 C 9,7 km/h (2 Bft) 100,00 %
02.06.2020 01:40 15,6 C 15,6 C 15,7 C 61 % 0 cb 1018,3 hPa 0,0 l/m 3,2 km/h (1 Bft) N 360 0 min 0,000 mm 0 W/m 8,1 C 15,6 C 8,0 km/h (2 Bft) 100,00 %
02.06.2020 01:50 15,5 C 15,5 C 15,6 C 61 % 0 cb 1018,3 hPa 0,0 l/m 3,2 km/h (1 Bft) N 360 0 min 0,000 mm 0 W/m 8,0 C 15,5 C 9,7 km/h (2 Bft) 100,00 %
02.06.2020 02:00 15,3 C 15,3 C 15,5 C 62 % 0 cb 1018,2 hPa 0,0 l/m 3,2 km/h (1 Bft) N 360 0 min 0,051 mm 0 W/m 8,1 C 15,3 C 12,9 km/h (3 Bft) 100,00 %
02.06.2020 02:10 15,2 C 15,2 C 15,3 C 62 % 0 cb 1018,2 hPa 0,0 l/m 3,2 km/h (1 Bft) N 360 0 min 0,000 mm 0 W/m 8,0 C 15,2 C 8,0 km/h (2 Bft) 100,00 %
02.06.2020 02:20 15,1 C 15,1 C 15,2 C 62 % 0 cb 1018,1 hPa 0,0 l/m 3,2 km/h (1 Bft) N 360 0 min 0,000 mm 0 W/m 7,9 C 15,1 C 8,0 km/h (2 Bft) 97,81 %
02.06.2020 02:30 15,1 C 15,1 C 15,1 C 62 % 0 cb 1018,1 hPa 0,0 l/m 3,2 km/h (1 Bft) N-NO 22 0 min 0,000 mm 0 W/m 7,9 C 15,1 C 9,7 km/h (2 Bft) 100,00 %
02.06.2020 02:40 14,9 C 14,9 C 15,1 C 63 % 0 cb 1018,2 hPa 0,0 l/m 1,6 km/h (1 Bft) N-NO 22 0 min 0,000 mm 0 W/m 7,9 C 14,9 C 8,0 km/h (2 Bft) 100,00 %
02.06.2020 02:50 14,8 C 14,8 C 14,9 C 63 % 0 cb 1018,3 hPa 0,0 l/m 3,2 km/h (1 Bft) N-NO 22 0 min 0,000 mm 0 W/m 7,8 C 14,8 C 9,7 km/h (2 Bft) 100,00 %
02.06.2020 03:00 14,7 C 14,7 C 14,8 C 63 % 0 cb 1018,2 hPa 0,0 l/m 3,2 km/h (1 Bft) N-NO 22 0 min 0,051 mm 0 W/m 7,7 C 14,7 C 11,3 km/h (2 Bft) 100,00 %
02.06.2020 03:10 14,7 C 14,7 C 14,7 C 63 % 0 cb 1018,2 hPa 0,0 l/m 4,8 km/h (1 Bft) N-NO 22 0 min 0,000 mm 0 W/m 7,7 C 14,7 C 12,9 km/h (3 Bft) 100,00 %
02.06.2020 03:20 14,6 C 14,6 C 14,7 C 63 % 0 cb 1018,2 hPa 0,0 l/m 4,8 km/h (1 Bft) N-NO 22 0 min 0,000 mm 0 W/m 7,6 C 14,6 C 9,7 km/h (2 Bft) 100,00 %
02.06.2020 03:30 14,5 C 14,5 C 14,6 C 63 % 0 cb 1018,1 hPa 0,0 l/m 4,8 km/h (1 Bft) N 360 0 min 0,000 mm 0 W/m 7,5 C 14,5 C 12,9 km/h (3 Bft) 100,00 %
02.06.2020 03:40 14,4 C 14,4 C 14,5 C 63 % 0 cb 1018,2 hPa 0,0 l/m 4,8 km/h (1 Bft) N-NO 22 0 min 0,000 mm 0 W/m 7,4 C 14,4 C 11,3 km/h (2 Bft) 100,00 %
02.06.2020 03:50 14,3 C 14,3 C 14,4 C 63 % 0 cb 1018,2 hPa 0,0 l/m 4,8 km/h (1 Bft) N-NO 22 0 min 0,000 mm 0 W/m 7,4 C 14,3 C 11,3 km/h (2 Bft) 100,00 %
02.06.2020 04:00 14,2 C 14,2 C 14,3 C 63 % 0 cb 1018,2 hPa 0,0 l/m 4,8 km/h (1 Bft) N 360 0 min 0,051 mm 0 W/m 7,3 C 14,2 C 12,9 km/h (3 Bft) 100,00 %
02.06.2020 04:10 14,1 C 14,1 C 14,2 C 64 % 0 cb 1018,1 hPa 0,0 l/m 4,8 km/h (1 Bft) N-NO 22 0 min 0,000 mm 0 W/m 7,4 C 14,1 C 11,3 km/h (2 Bft) 100,00 %
02.06.2020 04:20 13,9 C 13,9 C 14,1 C 64 % 0 cb 1018,2 hPa 0,0 l/m 4,8 km/h (1 Bft) N 360 0 min 0,000 mm 0 W/m 7,2 C 13,9 C 12,9 km/h (3 Bft) 100,00 %
02.06.2020 04:30 13,9 C 13,9 C 14,0 C 64 % 0 cb 1018,1 hPa 0,0 l/m 4,8 km/h (1 Bft) N 360 0 min 0,000 mm 0 W/m 7,2 C 13,9 C 12,9 km/h (3 Bft) 100,00 %
02.06.2020 04:40 13,8 C 13,8 C 13,9 C 65 % 0 cb 1018,0 hPa 0,0 l/m 6,4 km/h (2 Bft) N 360 0 min 0,000 mm 0 W/m 7,3 C 13,8 C 12,9 km/h (3 Bft) 100,00 %
02.06.2020 04:50 13,8 C 13,8 C 13,8 C 65 % 0 cb 1018,0 hPa 0,0 l/m 6,4 km/h (2 Bft) N-NO 22 0 min 0,000 mm 0 W/m 7,3 C 13,8 C 12,9 km/h (3 Bft) 100,00 %
02.06.2020 05:00 13,8 C 13,8 C 13,9 C 65 % 0 cb 1017,9 hPa 0,0 l/m 6,4 km/h (2 Bft) N-NO 22 0 min 0,051 mm 0 W/m 7,3 C 13,8 C 12,9 km/h (3 Bft) 100,00 %
02.06.2020 05:10 13,8 C 13,8 C 13,8 C 65 % 0 cb 1017,8 hPa 0,0 l/m 6,4 km/h (2 Bft) N 360 0 min 0,000 mm 0 W/m 7,3 C 13,8 C 11,3 km/h (2 Bft) 98,25 %
02.06.2020 05:20 13,8 C 13,8 C 13,8 C 65 % 0 cb 1017,8 hPa 0,0 l/m 8,0 km/h (2 Bft) N-NO 22 0 min 0,000 mm 0 W/m 7,3 C 13,8 C 14,5 km/h (3 Bft) 100,00 %
02.06.2020 05:30 13,8 C 13,8 C 13,8 C 65 % 0 cb 1017,8 hPa 0,0 l/m 8,0 km/h (2 Bft) N-NO 22 0 min 0,000 mm 5 W/m 7,3 C 13,8 C 14,5 km/h (3 Bft) 100,00 %
02.06.2020 05:40 13,8 C 13,8 C 13,8 C 65 % 0 cb 1017,8 hPa 0,0 l/m 6,4 km/h (2 Bft) N-NO 22 0 min 0,000 mm 11 W/m 7,3 C 13,8 C 14,5 km/h (3 Bft) 100,00 %
02.06.2020 05:50 14,0 C 13,8 C 14,0 C 65 % 0 cb 1017,7 hPa 0,0 l/m 6,4 km/h (2 Bft) N-NO 22 0 min 0,000 mm 14 W/m 7,5 C 14,0 C 12,9 km/h (3 Bft) 100,00 %
02.06.2020 06:00 14,1 C 14,0 C 14,1 C 64 % 0 cb 1017,7 hPa 0,0 l/m 6,4 km/h (2 Bft) N-NO 22 0 min 0,051 mm 19 W/m 7,4 C 14,1 C 14,5 km/h (3 Bft) 100,00 %
02.06.2020 06:10 14,1 C 14,1 C 14,1 C 65 % 0 cb 1017,8 hPa 0,0 l/m 6,4 km/h (2 Bft) N-NO 22 0 min 0,000 mm 23 W/m 7,6 C 14,1 C 12,9 km/h (3 Bft) 100,00 %
02.06.2020 06:20 13,9 C 13,9 C 14,1 C 65 % 0 cb 1017,8 hPa 0,0 l/m 4,8 km/h (1 Bft) N-NO 22 0 min 0,000 mm 25 W/m 7,4 C 13,9 C 9,7 km/h (2 Bft) 100,00 %
02.06.2020 06:30 13,9 C 13,9 C 13,9 C 66 % 0 cb 1017,8 hPa 0,0 l/m 4,8 km/h (1 Bft) N-NO 22 0 min 0,000 mm 28 W/m 7,7 C 13,9 C 9,7 km/h (2 Bft) 88,60 %
02.06.2020 06:40 14,1 C 13,9 C 14,1 C 65 % 0 cb 1017,8 hPa 0,0 l/m 4,8 km/h (1 Bft) N 360 0 min 0,000 mm 33 W/m 7,6 C 14,1 C 11,3 km/h (2 Bft) 95,18 %
02.06.2020 06:50 14,3 C 14,1 C 14,3 C 65 % 0 cb 1017,8 hPa 0,0 l/m 4,8 km/h (1 Bft) NO 45 0 min 0,000 mm 114 W/m 7,8 C 14,3 C 16,1 km/h (3 Bft) 100,00 %
02.06.2020 07:00 14,8 C 14,3 C 14,8 C 64 % 0 cb 1017,8 hPa 0,0 l/m 4,8 km/h (1 Bft) N-NO 22 0 min 0,051 mm 142 W/m 8,1 C 14,8 C 11,3 km/h (2 Bft) 98,25 %
02.06.2020 07:10 15,3 C 14,9 C 15,3 C 63 % 0 cb 1017,8 hPa 0,0 l/m 8,0 km/h (2 Bft) N 360 10 min 0,000 mm 153 W/m 8,3 C 15,3 C 14,5 km/h (3 Bft) 98,25 %
02.06.2020 07:20 15,6 C 15,3 C 15,6 C 63 % 0 cb 1017,8 hPa 0,0 l/m 6,4 km/h (2 Bft) N 360 10 min 0,000 mm 199 W/m 8,6 C 15,6 C 14,5 km/h (3 Bft) 100,00 %
02.06.2020 07:30 15,9 C 15,6 C 15,9 C 62 % 0 cb 1017,8 hPa 0,0 l/m 6,4 km/h (2 Bft) N 360 10 min 0,000 mm 230 W/m 8,6 C 15,9 C 14,5 km/h (3 Bft) 100,00 %
02.06.2020 07:40 16,3 C 15,9 C 16,3 C 61 % 0 cb 1017,7 hPa 0,0 l/m 6,4 km/h (2 Bft) N 360 10 min 0,000 mm 257 W/m 8,8 C 16,3 C 12,9 km/h (3 Bft) 100,00 %
02.06.2020 07:50 16,7 C 16,3 C 16,7 C 60 % 0 cb 1017,8 hPa 0,0 l/m 6,4 km/h (2 Bft) N 360 10 min 0,000 mm 285 W/m 8,9 C 16,7 C 12,9 km/h (3 Bft) 100,00 %
02.06.2020 08:00 17,1 C 16,7 C 17,1 C 60 % 0 cb 1017,7 hPa 0,0 l/m 8,0 km/h (2 Bft) N-NO 22 10 min 0,152 mm 320 W/m 9,3 C 17,1 C 14,5 km/h (3 Bft) 100,00 %
02.06.2020 08:10 17,4 C 17,1 C 17,4 C 59 % 0 cb 1017,7 hPa 0,0 l/m 6,4 km/h (2 Bft) N-NO 22 10 min 0,000 mm 343 W/m 9,3 C 17,4 C 16,1 km/h (3 Bft) 100,00 %
02.06.2020 08:20 17,8 C 17,4 C 17,8 C 59 % 0 cb 1017,7 hPa 0,0 l/m 8,0 km/h (2 Bft) N-NO 22 10 min 0,000 mm 367 W/m 9,7 C 17,8 C 16,1 km/h (3 Bft) 100,00 %
02.06.2020 08:30 18,1 C 17,8 C 18,1 C 60 % 0 cb 1017,7 hPa 0,0 l/m 6,4 km/h (2 Bft) N-NO 22 10 min 0,000 mm 399 W/m 10,2 C 18,1 C 12,9 km/h (3 Bft) 100,00 %
02.06.2020 08:40 18,6 C 18,1 C 18,6 C 59 % 0 cb 1017,7 hPa 0,0 l/m 4,8 km/h (1 Bft) N-NO 22 10 min 0,000 mm 427 W/m 10,4 C 18,6 C 14,5 km/h (3 Bft) 100,00 %
02.06.2020 08:50 19,0 C 18,6 C 19,0 C 56 % 0 cb 1017,7 hPa 0,0 l/m 6,4 km/h (2 Bft) NO 45 10 min 0,000 mm 443 W/m 10,0 C 19,0 C 12,9 km/h (3 Bft) 100,00 %
02.06.2020 09:00 19,3 C 18,9 C 19,3 C 55 % 0 cb 1017,7 hPa 0,0 l/m 4,8 km/h (1 Bft) NO 45 10 min 0,254 mm 466 W/m 10,0 C 19,3 C 14,5 km/h (3 Bft) 100,00 %
02.06.2020 09:10 19,6 C 19,3 C 19,6 C 56 % 0 cb 1017,7 hPa 0,0 l/m 3,2 km/h (1 Bft) N-NO 22 10 min 0,000 mm 510 W/m 10,6 C 19,6 C 11,3 km/h (2 Bft) 100,00 %
02.06.2020 09:20 20,1 C 19,7 C 20,1 C 55 % 0 cb 1017,7 hPa 0,0 l/m 3,2 km/h (1 Bft) N 360 10 min 0,000 mm 534 W/m 10,8 C 20,1 C 11,3 km/h (2 Bft) 100,00 %
02.06.2020 09:30 20,3 C 20,1 C 20,3 C 54 % 0 cb 1017,7 hPa 0,0 l/m 4,8 km/h (1 Bft) N 360 10 min 0,000 mm 555 W/m 10,7 C 20,3 C 9,7 km/h (2 Bft) 100,00 %
02.06.2020 09:40 20,4 C 20,3 C 20,4 C 53 % 0 cb 1017,7 hPa 0,0 l/m 4,8 km/h (1 Bft) N-NO 22 10 min 0,000 mm 603 W/m 10,5 C 20,4 C 11,3 km/h (2 Bft) 100,00 %
02.06.2020 09:50 21,1 C 20,4 C 21,1 C 53 % 0 cb 1017,6 hPa 0,0 l/m 4,8 km/h (1 Bft) N-NW 337 10 min 0,000 mm 617 W/m 11,1 C 21,1 C 11,3 km/h (2 Bft) 100,00 %
02.06.2020 10:00 21,3 C 21,1 C 21,3 C 52 % 0 cb 1017,5 hPa 0,0 l/m 4,8 km/h (1 Bft) N-NO 22 10 min 0,356 mm 640 W/m 11,0 C 21,3 C 12,9 km/h (3 Bft) 100,00 %
02.06.2020 10:10 21,8 C 21,3 C 21,8 C 51 % 0 cb 1017,3 hPa 0,0 l/m 4,8 km/h (1 Bft) N 360 10 min 0,000 mm 661 W/m 11,2 C 21,8 C 11,3 km/h (2 Bft) 96,93 %
02.06.2020 10:20 21,8 C 21,8 C 21,8 C 51 % 0 cb 1017,3 hPa 0,0 l/m 4,8 km/h (1 Bft) N-NO 22 10 min 0,000 mm 654 W/m 11,2 C 21,8 C 14,5 km/h (3 Bft) 100,00 %
02.06.2020 10:30 22,1 C 21,8 C 22,1 C 50 % 0 cb 1017,2 hPa 0,0 l/m 4,8 km/h (1 Bft) N-NO 22 10 min 0,000 mm 707 W/m 11,2 C 22,1 C 16,1 km/h (3 Bft) 100,00 %
02.06.2020 10:40 22,3 C 22,1 C 22,3 C 51 % 0 cb 1017,2 hPa 0,0 l/m 4,8 km/h (1 Bft) NW 315 10 min 0,000 mm 721 W/m 11,7 C 22,3 C 9,7 km/h (2 Bft) 100,00 %
02.06.2020 10:50 22,8 C 22,3 C 22,8 C 49 % 0 cb 1017,1 hPa 0,0 l/m 3,2 km/h (1 Bft) N-NO 22 10 min 0,000 mm 745 W/m 11,5 C 22,8 C 11,3 km/h (2 Bft) 100,00 %
02.06.2020 11:00 23,4 C 22,8 C 23,4 C 46 % 0 cb 1017,1 hPa 0,0 l/m 3,2 km/h (1 Bft) O-NO 67 10 min 0,457 mm 759 W/m 11,1 C 23,4 C 9,7 km/h (2 Bft) 97,37 %
02.06.2020 11:10 23,4 C 23,4 C 23,6 C 45 % 0 cb 1016,9 hPa 0,0 l/m 4,8 km/h (1 Bft) N 360 10 min 0,000 mm 747 W/m 10,8 C 23,4 C 12,9 km/h (3 Bft) 75,00 %
02.06.2020 11:20 23,4 C 23,4 C 23,4 C 44 % 0 cb 1016,9 hPa 0,0 l/m 4,8 km/h (1 Bft) N 360 10 min 0,000 mm 763 W/m 10,4 C 23,4 C 16,1 km/h (3 Bft) 87,72 %
02.06.2020 11:30 23,8 C 23,4 C 23,8 C 44 % 0 cb 1016,9 hPa 0,0 l/m 3,2 km/h (1 Bft) N-NO 22 10 min 0,000 mm 777 W/m 10,8 C 23,8 C 11,3 km/h (2 Bft) 100,00 %
02.06.2020 11:40 24,1 C 23,8 C 24,1 C 40 % 0 cb 1016,9 hPa 0,0 l/m 4,8 km/h (1 Bft) N-NO 22 10 min 0,000 mm 816 W/m 9,6 C 24,1 C 14,5 km/h (3 Bft) 100,00 %
02.06.2020 11:50 24,0 C 23,9 C 24,1 C 42 % 0 cb 1016,8 hPa 0,0 l/m 6,4 km/h (2 Bft) NO 45 10 min 0,000 mm 856 W/m 10,3 C 24,0 C 14,5 km/h (3 Bft) 99,12 %
02.06.2020 12:00 24,1 C 24,0 C 24,2 C 39 % 0 cb 1016,8 hPa 0,0 l/m 6,4 km/h (2 Bft) N 360 10 min 0,533 mm 851 W/m 9,3 C 24,1 C 17,7 km/h (3 Bft) 100,00 %
02.06.2020 12:10 24,1 C 23,9 C 24,1 C 40 % 0 cb 1016,6 hPa 0,0 l/m 6,4 km/h (2 Bft) N-NO 22 10 min 0,000 mm 863 W/m 9,6 C 24,1 C 17,7 km/h (3 Bft) 100,00 %
02.06.2020 12:20 24,2 C 24,1 C 24,2 C 41 % 0 cb 1016,4 hPa 0,0 l/m 8,0 km/h (2 Bft) N 360 10 min 0,000 mm 875 W/m 10,1 C 24,2 C 17,7 km/h (3 Bft) 64,47 %
02.06.2020 12:30 24,3 C 24,2 C 24,3 C 40 % 0 cb 1016,3 hPa 0,0 l/m 4,8 km/h (1 Bft) N-NO 22 10 min 0,000 mm 877 W/m 9,8 C 24,3 C 11,3 km/h (2 Bft) 93,86 %
02.06.2020 12:40 24,4 C 24,3 C 24,4 C 40 % 0 cb 1016,2 hPa 0,0 l/m 6,4 km/h (2 Bft) N-NO 22 10 min 0,000 mm 893 W/m 9,9 C 24,4 C 14,5 km/h (3 Bft) 100,00 %
02.06.2020 12:50 24,6 C 24,3 C 24,6 C 40 % 0 cb 1016,1 hPa 0,0 l/m 4,8 km/h (1 Bft) N-NO 22 10 min 0,000 mm 886 W/m 10,1 C 24,6 C 17,7 km/h (3 Bft) 100,00 %
02.06.2020 13:00 24,7 C 24,4 C 24,7 C 38 % 0 cb 1016,1 hPa 0,0 l/m 4,8 km/h (1 Bft) N-NO 22 10 min 0,584 mm 870 W/m 9,4 C 24,7 C 16,1 km/h (3 Bft) 100,00 %
02.06.2020 13:10 25,0 C 24,7 C 25,0 C 36 % 0 cb 1016,0 hPa 0,0 l/m 6,4 km/h (2 Bft) O-SO 112 10 min 0,000 mm 891 W/m 8,9 C 25,0 C 16,1 km/h (3 Bft) 100,00 %
02.06.2020 13:20 25,2 C 25,0 C 25,2 C 35 % 0 cb 1016,0 hPa 0,0 l/m 6,4 km/h (2 Bft) O 90 10 min 0,000 mm 896 W/m 8,6 C 25,2 C 16,1 km/h (3 Bft) 100,00 %
02.06.2020 13:30 25,3 C 25,2 C 25,3 C 35 % 0 cb 1015,8 hPa 0,0 l/m 4,8 km/h (1 Bft) NO 45 10 min 0,000 mm 870 W/m 8,7 C 25,3 C 14,5 km/h (3 Bft) 100,00 %
02.06.2020 13:40 25,3 C 25,3 C 25,3 C 31 % 0 cb 1015,7 hPa 0,0 l/m 4,8 km/h (1 Bft) N 360 10 min 0,000 mm 900 W/m 6,9 C 25,3 C 12,9 km/h (3 Bft) 100,00 %
02.06.2020 13:50 25,4 C 25,3 C 25,4 C 37 % 0 cb 1015,6 hPa 0,0 l/m 4,8 km/h (1 Bft) O-NO 67 10 min 0,000 mm 916 W/m 9,6 C 25,4 C 9,7 km/h (2 Bft) 100,00 %
02.06.2020 14:00 25,6 C 25,4 C 25,6 C 40 % 0 cb 1015,5 hPa 0,0 l/m 3,2 km/h (1 Bft) O 90 10 min 0,610 mm 891 W/m 11,0 C 25,6 C 11,3 km/h (2 Bft) 100,00 %
02.06.2020 14:10 26,0 C 25,6 C 26,0 C 40 % 0 cb 1015,4 hPa 0,0 l/m 4,8 km/h (1 Bft) O 90 10 min 0,000 mm 900 W/m 11,3 C 26,0 C 16,1 km/h (3 Bft) 100,00 %
02.06.2020 14:20 26,0 C 26,0 C 26,1 C 39 % 0 cb 1015,3 hPa 0,0 l/m 4,8 km/h (1 Bft) SO 135 10 min 0,000 mm 895 W/m 11,0 C 26,0 C 19,3 km/h (3 Bft) 100,00 %
02.06.2020 14:30 26,1 C 25,9 C 26,1 C 41 % 0 cb 1015,2 hPa 0,0 l/m 4,8 km/h (1 Bft) S-SO 157 10 min 0,000 mm 877 W/m 11,8 C 26,1 C 14,5 km/h (3 Bft) 100,00 %
02.06.2020 14:40 26,2 C 26,1 C 26,3 C 36 % 0 cb 1015,1 hPa 0,0 l/m 4,8 km/h (1 Bft) O 90 10 min 0,000 mm 893 W/m 9,9 C 26,2 C 16,1 km/h (3 Bft) 100,00 %
02.06.2020 14:50 26,2 C 26,1 C 26,2 C 35 % 0 cb 1015,1 hPa 0,0 l/m 3,2 km/h (1 Bft) O 90 10 min 0,000 mm 837 W/m 9,5 C 26,2 C 12,9 km/h (3 Bft) 100,00 %
02.06.2020 15:00 26,1 C 26,1 C 26,3 C 35 % 0 cb 1015,0 hPa 0,0 l/m 4,8 km/h (1 Bft) SO 135 10 min 0,584 mm 821 W/m 9,4 C 26,1 C 14,5 km/h (3 Bft) 100,00 %
02.06.2020 15:10 26,1 C 26,0 C 26,1 C 35 % 0 cb 1014,9 hPa 0,0 l/m 4,8 km/h (1 Bft) O-SO 112 10 min 0,000 mm 817 W/m 9,4 C 26,1 C 16,1 km/h (3 Bft) 99,12 %
02.06.2020 15:20 26,1 C 26,1 C 26,2 C 35 % 0 cb 1014,7 hPa 0,0 l/m 3,2 km/h (1 Bft) NO 45 10 min 0,000 mm 824 W/m 9,4 C 26,1 C 11,3 km/h (2 Bft) 100,00 %
02.06.2020 15:30 26,4 C 26,1 C 26,4 C 33 % 0 cb 1014,5 hPa 0,0 l/m 3,2 km/h (1 Bft) O-NO 67 10 min 0,000 mm 810 W/m 8,8 C 26,4 C 14,5 km/h (3 Bft) 100,00 %
02.06.2020 15:40 26,6 C 26,4 C 26,6 C 33 % 0 cb 1014,4 hPa 0,0 l/m 3,2 km/h (1 Bft) O-NO 67 10 min 0,000 mm 793 W/m 9,0 C 26,6 C 11,3 km/h (2 Bft) 100,00 %
02.06.2020 15:50 26,8 C 26,6 C 26,8 C 36 % 0 cb 1014,3 hPa 0,0 l/m 1,6 km/h (1 Bft) S-SW 202 10 min 0,000 mm 770 W/m 10,5 C 26,8 C 6,4 km/h (2 Bft) 100,00 %
02.06.2020 16:00 26,7 C 26,7 C 26,9 C 34 % 0 cb 1014,2 hPa 0,0 l/m 3,2 km/h (1 Bft) O-SO 112 10 min 0,533 mm 754 W/m 9,5 C 26,7 C 17,7 km/h (3 Bft) 100,00 %
02.06.2020 16:10 26,9 C 26,7 C 26,9 C 33 % 0 cb 1014,1 hPa 0,0 l/m 3,2 km/h (1 Bft) SO 135 10 min 0,000 mm 728 W/m 9,3 C 26,9 C 11,3 km/h (2 Bft) 100,00 %
02.06.2020 16:20 26,8 C 26,8 C 26,9 C 33 % 0 cb 1013,9 hPa 0,0 l/m 3,2 km/h (1 Bft) O-SO 112 10 min 0,000 mm 719 W/m 9,2 C 26,8 C 12,9 km/h (3 Bft) 100,00 %
02.06.2020 16:30 26,8 C 26,7 C 26,9 C 31 % 0 cb 1013,9 hPa 0,0 l/m 1,6 km/h (1 Bft) N-NW 337 10 min 0,000 mm 701 W/m 8,2 C 26,8 C 9,7 km/h (2 Bft) 100,00 %
02.06.2020 16:40 27,3 C 26,8 C 27,3 C 33 % 0 cb 1013,8 hPa 0,0 l/m 1,6 km/h (1 Bft) NW 315 10 min 0,000 mm 673 W/m 9,6 C 27,3 C 6,4 km/h (2 Bft) 100,00 %
02.06.2020 16:50 27,6 C 27,3 C 27,6 C 32 % 0 cb 1013,6 hPa 0,0 l/m 1,6 km/h (1 Bft) W-SW 247 10 min 0,000 mm 659 W/m 9,4 C 27,6 C 8,0 km/h (2 Bft) 100,00 %
02.06.2020 17:00 27,8 C 27,6 C 27,8 C 35 % 0 cb 1013,5 hPa 0,0 l/m 3,2 km/h (1 Bft) SW 225 10 min 0,457 mm 645 W/m 10,9 C 27,8 C 9,7 km/h (2 Bft) 100,00 %
02.06.2020 17:10 28,1 C 27,8 C 28,1 C 30 % 0 cb 1013,4 hPa 0,0 l/m 1,6 km/h (1 Bft) S-SW 202 10 min 0,000 mm 622 W/m 8,9 C 28,1 C 6,4 km/h (2 Bft) 100,00 %
02.06.2020 17:20 28,2 C 28,1 C 28,2 C 29 % 0 cb 1013,3 hPa 0,0 l/m 1,6 km/h (1 Bft) SW 225 10 min 0,000 mm 580 W/m 8,5 C 28,2 C 4,8 km/h (1 Bft) 100,00 %
02.06.2020 17:30 28,3 C 28,1 C 28,3 C 32 % 0 cb 1013,2 hPa 0,0 l/m 1,6 km/h (1 Bft) W-NW 292 10 min 0,000 mm 575 W/m 10,0 C 28,3 C 11,3 km/h (2 Bft) 100,00 %
02.06.2020 17:40 28,2 C 28,2 C 28,4 C 30 % 0 cb 1013,1 hPa 0,0 l/m 1,6 km/h (1 Bft) W-NW 292 10 min 0,000 mm 547 W/m 9,0 C 28,2 C 6,4 km/h (2 Bft) 100,00 %
02.06.2020 17:50 27,8 C 27,8 C 28,2 C 30 % 0 cb 1012,9 hPa 0,0 l/m 1,6 km/h (1 Bft) NW 315 10 min 0,000 mm 508 W/m 8,6 C 27,8 C 6,4 km/h (2 Bft) 100,00 %
02.06.2020 18:00 28,0 C 27,8 C 28,0 C 33 % 0 cb 1012,8 hPa 0,0 l/m 1,6 km/h (1 Bft) NW 315 10 min 0,381 mm 487 W/m 10,2 C 28,0 C 4,8 km/h (1 Bft) 100,00 %
02.06.2020 18:10 27,7 C 27,7 C 28,0 C 32 % 0 cb 1012,7 hPa 0,0 l/m 1,6 km/h (1 Bft) W-NW 292 10 min 0,000 mm 450 W/m 9,5 C 27,7 C 4,8 km/h (1 Bft) 100,00 %
02.06.2020 18:20 27,4 C 27,4 C 27,7 C 34 % 0 cb 1012,6 hPa 0,0 l/m 1,6 km/h (1 Bft) SO 135 10 min 0,000 mm 439 W/m 10,1 C 27,4 C 6,4 km/h (2 Bft) 100,00 %
02.06.2020 18:30 27,1 C 27,1 C 27,4 C 32 % 0 cb 1012,5 hPa 0,0 l/m 1,6 km/h (1 Bft) S-SO 157 10 min 0,000 mm 417 W/m 9,0 C 27,1 C 6,4 km/h (2 Bft) 98,25 %
02.06.2020 18:40 26,8 C 26,8 C 27,1 C 35 % 0 cb 1012,4 hPa 0,0 l/m 1,6 km/h (1 Bft) S-SO 157 10 min 0,000 mm 369 W/m 10,0 C 26,8 C 4,8 km/h (1 Bft) 100,00 %
02.06.2020 18:50 26,8 C 26,8 C 26,8 C 32 % 0 cb 1012,3 hPa 0,0 l/m 1,6 km/h (1 Bft) S-SO 157 10 min 0,000 mm 336 W/m 8,7 C 26,8 C 6,4 km/h (2 Bft) 100,00 %
02.06.2020 19:00 26,8 C 26,8 C 26,8 C 32 % 0 cb 1012,1 hPa 0,0 l/m 1,6 km/h (1 Bft) S-SO 157 10 min 0,279 mm 318 W/m 8,7 C 26,8 C 8,0 km/h (2 Bft) 100,00 %
02.06.2020 19:10 26,9 C 26,8 C 26,9 C 33 % 0 cb 1012,1 hPa 0,0 l/m 0,0 km/h (0 Bft) S-SO 157 10 min 0,000 mm 285 W/m 9,3 C 26,9 C 1,6 km/h (1 Bft) 100,00 %
02.06.2020 19:20 26,7 C 26,7 C 26,9 C 34 % 0 cb 1012,0 hPa 0,0 l/m 0,0 km/h (0 Bft) S-SO 157 10 min 0,000 mm 236 W/m 9,5 C 26,7 C 3,2 km/h (1 Bft) 100,00 %
02.06.2020 19:30 26,4 C 26,4 C 26,7 C 33 % 0 cb 1011,9 hPa 0,0 l/m 1,6 km/h (1 Bft) S-SO 157 10 min 0,000 mm 197 W/m 8,8 C 26,4 C 6,4 km/h (2 Bft) 97,81 %
02.06.2020 19:40 25,9 C 25,9 C 26,4 C 34 % 0 cb 1011,8 hPa 0,0 l/m 1,6 km/h (1 Bft) S-SO 157 10 min 0,000 mm 171 W/m 8,8 C 25,9 C 4,8 km/h (1 Bft) 100,00 %
02.06.2020 19:50 25,8 C 25,8 C 25,9 C 36 % 0 cb 1011,7 hPa 0,0 l/m 0,0 km/h (0 Bft) S-SO 157 10 min 0,000 mm 169 W/m 9,6 C 25,8 C 3,2 km/h (1 Bft) 100,00 %
02.06.2020 20:00 25,7 C 25,7 C 25,8 C 36 % 0 cb 1011,6 hPa 0,0 l/m 0,0 km/h (0 Bft) S-SO 157 0 min 0,127 mm 137 W/m 9,5 C 25,7 C 4,8 km/h (1 Bft) 100,00 %
02.06.2020 20:10 25,6 C 25,6 C 25,7 C 38 % 0 cb 1011,5 hPa 0,0 l/m 0,0 km/h (0 Bft) S-SO 157 0 min 0,000 mm 81 W/m 10,2 C 25,6 C 3,2 km/h (1 Bft) 100,00 %
02.06.2020 20:20 25,3 C 25,3 C 25,6 C 38 % 0 cb 1011,4 hPa 0,0 l/m 0,0 km/h (0 Bft) N 0 0 min 0,000 mm 67 W/m 9,9 C 25,3 C 0,0 km/h (0 Bft) 100,00 %
02.06.2020 20:30 24,9 C 24,9 C 25,3 C 39 % 0 cb 1011,4 hPa 0,0 l/m 0,0 km/h (0 Bft) N 0 0 min 0,000 mm 62 W/m 10,0 C 24,9 C 0,0 km/h (0 Bft) 100,00 %
02.06.2020 20:40 24,4 C 24,4 C 24,9 C 44 % 0 cb 1011,4 hPa 0,0 l/m 0,0 km/h (0 Bft) N 0 0 min 0,000 mm 42 W/m 11,3 C 24,4 C 0,0 km/h (0 Bft) 100,00 %
02.06.2020 20:50 23,7 C 23,7 C 24,4 C 44 % 0 cb 1011,3 hPa 0,0 l/m 0,0 km/h (0 Bft) N 0 0 min 0,000 mm 35 W/m 10,7 C 23,7 C 0,0 km/h (0 Bft) 100,00 %
02.06.2020 21:00 22,9 C 22,9 C 23,6 C 47 % 0 cb 1011,3 hPa 0,0 l/m 0,0 km/h (0 Bft) N 0 0 min 0,051 mm 25 W/m 11,0 C 22,9 C 0,0 km/h (0 Bft) 100,00 %
02.06.2020 21:10 22,2 C 22,2 C 22,9 C 48 % 0 cb 1011,2 hPa 0,0 l/m 0,0 km/h (0 Bft) N 0 0 min 0,000 mm 16 W/m 10,7 C 22,2 C 0,0 km/h (0 Bft) 100,00 %
02.06.2020 21:20 21,7 C 21,7 C 22,2 C 47 % 0 cb 1011,1 hPa 0,0 l/m 0,0 km/h (0 Bft) N 0 0 min 0,000 mm 11 W/m 9,9 C 21,7 C 0,0 km/h (0 Bft) 100,00 %
02.06.2020 21:30 21,2 C 21,2 C 21,7 C 49 % 0 cb 1011,1 hPa 0,0 l/m 0,0 km/h (0 Bft) N 0 0 min 0,000 mm 5 W/m 10,1 C 21,2 C 0,0 km/h (0 Bft) 100,00 %
02.06.2020 21:40 20,8 C 20,8 C 21,2 C 50 % 0 cb 1011,1 hPa 0,0 l/m 0,0 km/h (0 Bft) N 0 0 min 0,000 mm 0 W/m 10,0 C 20,8 C 0,0 km/h (0 Bft) 100,00 %
02.06.2020 21:50 20,3 C 20,3 C 20,8 C 52 % 0 cb 1011,3 hPa 0,0 l/m 0,0 km/h (0 Bft) N 0 0 min 0,000 mm 0 W/m 10,1 C 20,3 C 0,0 km/h (0 Bft) 100,00 %
02.06.2020 22:00 19,8 C 19,8 C 20,3 C 54 % 0 cb 1011,3 hPa 0,0 l/m 0,0 km/h (0 Bft) N 0 0 min 0,025 mm 0 W/m 10,2 C 19,8 C 0,0 km/h (0 Bft) 97,37 %
02.06.2020 22:10 19,4 C 19,4 C 19,8 C 54 % 0 cb 1011,3 hPa 0,0 l/m 0,0 km/h (0 Bft) N 0 0 min 0,000 mm 0 W/m 9,8 C 19,4 C 0,0 km/h (0 Bft) 100,00 %
02.06.2020 22:20 19,2 C 19,2 C 19,4 C 54 % 0 cb 1011,3 hPa 0,0 l/m 0,0 km/h (0 Bft) N 0 0 min 0,000 mm 0 W/m 9,7 C 19,2 C 0,0 km/h (0 Bft) 100,00 %
02.06.2020 22:30 19,0 C 19,0 C 19,2 C 55 % 0 cb 1011,3 hPa 0,0 l/m 0,0 km/h (0 Bft) N 0 0 min 0,000 mm 0 W/m 9,8 C 19,0 C 0,0 km/h (0 Bft) 100,00 %
02.06.2020 22:40 18,7 C 18,7 C 19,0 C 55 % 0 cb 1011,2 hPa 0,0 l/m 0,0 km/h (0 Bft) N 0 0 min 0,000 mm 0 W/m 9,5 C 18,7 C 0,0 km/h (0 Bft) 100,00 %
02.06.2020 22:50 18,3 C 18,2 C 18,7 C 59 % 0 cb 1011,2 hPa 0,0 l/m 0,0 km/h (0 Bft) N 0 0 min 0,000 mm 0 W/m 10,1 C 18,3 C 0,0 km/h (0 Bft) 100,00 %
02.06.2020 23:00 17,9 C 17,9 C 18,2 C 59 % 0 cb 1011,1 hPa 0,0 l/m 0,0 km/h (0 Bft) N 0 0 min 0,051 mm 0 W/m 9,8 C 17,9 C 0,0 km/h (0 Bft) 100,00 %
02.06.2020 23:10 17,7 C 17,7 C 17,9 C 58 % 0 cb 1011,0 hPa 0,0 l/m 0,0 km/h (0 Bft) N 0 0 min 0,000 mm 0 W/m 9,3 C 17,7 C 0,0 km/h (0 Bft) 100,00 %
02.06.2020 23:20 17,3 C 17,3 C 17,7 C 60 % 0 cb 1011,0 hPa 0,0 l/m 0,0 km/h (0 Bft) N 0 0 min 0,000 mm 0 W/m 9,5 C 17,3 C 0,0 km/h (0 Bft) 100,00 %
02.06.2020 23:30 17,1 C 17,1 C 17,3 C 61 % 0 cb 1010,9 hPa 0,0 l/m 0,0 km/h (0 Bft) N 0 0 min 0,000 mm 0 W/m 9,5 C 17,1 C 0,0 km/h (0 Bft) 100,00 %
02.06.2020 23:40 16,8 C 16,8 C 17,1 C 62 % 0 cb 1010,8 hPa 0,0 l/m 0,0 km/h (0 Bft) N 0 0 min 0,000 mm 0 W/m 9,5 C 16,8 C 0,0 km/h (0 Bft) 100,00 %
02.06.2020 23:50 16,7 C 16,7 C 16,8 C 62 % 0 cb 1010,8 hPa 0,0 l/m 0,0 km/h (0 Bft) N 0 0 min 0,000 mm 0 W/m 9,4 C 16,7 C 0,0 km/h (0 Bft) 100,00 %
_ Min-Zeit 04:40 04:40 04:50 17:20 00:00 23:40 - 19:10 - - - - - 13:40 04:40 20:20 12:20
Minimum _ 13,8 C 13,8 C 13,8 C 29 % 0 cb 1010,8 hPa - 0,0 km/h (0 Bft) - - - - - 6,9 C 13,8 C 0,0 km/h (0 Bft) 64,47 %
_ Max-Zeit 17:40 17:40 17:40 06:30 00:00 00:00 00:00 05:20 - - 07:10 14:00 13:50 14:30 17:30 14:20 00:00
Maximum _ 28,4 C 28,2 C 28,4 C 66 % 0 cb 1018,7 hPa 0,0 l/m 8,0 km/h
N-NO (2 Bft)
- - 10 min 0,610 mm 916 W/m 11,8 C 28,3 C 19,3 km/h
O-SO (3 Bft)
100,00 %
Durchschnitt _ 20,7 C 20,6 C 20,8 C 50 % 0 cb 1015,5 hPa #0,0 l/m 3,5 km/h (1 Bft) N-NO - #12:50 h #5,842 mm 503 W/m 9,2 C 20,7 C 9,6 km/h (2 Bft) 99,17 %
Wetterstation Gdesweiler